createdAt,value
2023-02-06T00:01:30.960Z,2.25
2023-02-06T00:03:58.663Z,2.88
2023-02-06T00:06:26.443Z,3.67
2023-02-06T00:08:54.372Z,2.97
2023-02-06T00:11:22.553Z,2.65
2023-02-06T00:13:51.858Z,3.92
2023-02-06T00:16:22.099Z,2.38
2023-02-06T00:18:50.696Z,2.95
2023-02-06T00:21:20.253Z,2.78
2023-02-06T00:23:48.175Z,2.97
2023-02-06T00:26:16.004Z,3.28
2023-02-06T00:28:43.989Z,3.28
2023-02-06T00:31:13.746Z,2.28
2023-02-06T00:33:42.155Z,3.00
2023-02-06T00:36:11.163Z,3.13
2023-02-06T00:38:39.077Z,2.42
2023-02-06T00:41:07.066Z,2.20
2023-02-06T00:43:35.453Z,3.08
2023-02-06T00:46:03.285Z,3.60
2023-02-06T00:48:32.462Z,3.80
2023-02-06T00:51:00.210Z,3.55
2023-02-06T00:53:28.137Z,3.17
2023-02-06T00:55:55.940Z,2.95
2023-02-06T00:58:23.931Z,2.92
2023-02-06T01:00:53.106Z,2.58
2023-02-06T01:03:20.942Z,2.15
2023-02-06T01:05:50.138Z,3.13
2023-02-06T01:08:17.835Z,2.63
2023-02-06T01:10:45.790Z,2.30
2023-02-06T01:13:13.795Z,3.00
2023-02-06T01:15:41.778Z,2.33
2023-02-06T01:18:09.544Z,4.10
2023-02-06T01:20:37.372Z,3.67
2023-02-06T01:23:06.577Z,3.38
2023-02-06T01:25:34.978Z,4.03
2023-02-06T01:28:02.972Z,3.97
2023-02-06T01:30:30.829Z,2.83
2023-02-06T01:32:58.700Z,3.55
2023-02-06T01:35:27.915Z,3.15
2023-02-06T01:37:55.652Z,2.10
2023-02-06T01:40:25.077Z,2.58
2023-02-06T01:42:52.984Z,3.08
2023-02-06T01:45:42.945Z,2.60
2023-02-06T01:48:16.166Z,3.40
2023-02-06T01:50:48.097Z,2.63
2023-02-06T01:53:18.346Z,3.55
2023-02-06T01:55:50.527Z,3.08
2023-02-06T01:58:25.388Z,4.07
2023-02-06T02:00:53.336Z,2.13
2023-02-06T02:03:21.302Z,2.83
2023-02-06T02:05:51.564Z,2.30
2023-02-06T02:08:23.656Z,3.65
2023-02-06T02:10:52.995Z,3.42
2023-02-06T02:13:20.703Z,2.80
2023-02-06T02:15:59.210Z,3.33
2023-02-06T02:18:43.180Z,3.42
2023-02-06T02:22:00.938Z,3.47
2023-02-06T02:24:47.572Z,2.75
2023-02-06T02:27:35.535Z,3.33
2023-02-06T02:30:51.084Z,3.10
2023-02-06T02:33:37.400Z,2.80
2023-02-06T02:36:15.724Z,2.08
2023-02-06T02:38:54.729Z,3.25
2023-02-06T02:41:28.834Z,3.00
2023-02-06T02:44:02.869Z,2.03
2023-02-06T02:46:35.872Z,2.92
2023-02-06T02:49:06.789Z,2.70
2023-02-06T02:51:39.043Z,2.28
2023-02-06T02:54:07.147Z,1.83
2023-02-06T02:56:36.095Z,3.03
2023-02-06T02:59:06.591Z,4.20
2023-02-06T03:01:38.720Z,2.55
2023-02-06T03:04:08.764Z,2.80
2023-02-06T03:06:58.005Z,3.40
2023-02-06T03:09:36.327Z,2.83
2023-02-06T03:12:11.267Z,3.03
2023-02-06T03:14:46.446Z,2.70
2023-02-06T03:17:19.848Z,2.75
2023-02-06T03:19:52.892Z,3.08
2023-02-06T03:22:22.809Z,1.92
2023-02-06T03:24:52.101Z,1.85
2023-02-06T03:27:21.665Z,3.08
2023-02-06T03:29:51.414Z,3.55
2023-02-06T03:32:24.357Z,2.33
2023-02-06T03:34:59.068Z,2.03
2023-02-06T03:37:29.911Z,1.85
2023-02-06T03:40:00.567Z,4.57
2023-02-06T03:42:30.705Z,2.92
2023-02-06T03:45:03.108Z,3.03
2023-02-06T03:47:32.600Z,4.18
2023-02-06T03:50:02.376Z,3.28
2023-02-06T03:52:36.872Z,3.13
2023-02-06T03:55:09.415Z,2.40
2023-02-06T03:57:38.959Z,3.58
2023-02-06T04:00:07.772Z,4.90
2023-02-06T04:02:36.424Z,2.33
2023-02-06T04:05:04.295Z,2.53
2023-02-06T04:07:36.195Z,2.40
2023-02-06T04:10:04.726Z,2.58
2023-02-06T04:12:32.622Z,2.55
2023-02-06T04:15:00.353Z,3.63
2023-02-06T04:17:43.101Z,2.45
2023-02-06T04:20:12.084Z,2.80
2023-02-06T04:22:41.866Z,3.13
2023-02-06T04:25:09.993Z,3.40
2023-02-06T04:27:38.529Z,2.50
2023-02-06T04:30:07.448Z,4.97
2023-02-06T04:32:35.277Z,1.85
2023-02-06T04:35:03.214Z,2.05
2023-02-06T04:37:30.960Z,2.97
2023-02-06T04:40:00.120Z,2.80
2023-02-06T04:42:28.100Z,3.83
2023-02-06T04:44:55.798Z,3.45
2023-02-06T04:47:23.561Z,1.75
2023-02-06T04:49:51.303Z,2.53
2023-02-06T04:52:19.076Z,3.28
2023-02-06T04:54:46.835Z,1.55
2023-02-06T04:57:16.068Z,2.72
2023-02-06T04:59:43.767Z,2.13
2023-02-06T05:02:11.494Z,2.47
2023-02-06T05:04:39.509Z,2.55
2023-02-06T05:07:07.423Z,2.92
2023-02-06T05:09:35.246Z,2.72
2023-02-06T05:12:02.993Z,2.10
2023-02-06T05:14:32.306Z,2.20
2023-02-06T05:17:00.065Z,3.58
2023-02-06T05:19:27.839Z,2.72
2023-02-06T05:21:55.605Z,2.42
2023-02-06T05:24:23.385Z,4.18
2023-02-06T05:26:51.132Z,3.55
2023-02-06T05:29:18.888Z,3.22
2023-02-06T05:31:48.041Z,2.50
2023-02-06T05:34:15.784Z,3.10
2023-02-06T05:36:43.556Z,2.33
2023-02-06T05:39:11.256Z,3.55
2023-02-06T05:41:39.021Z,2.45
2023-02-06T05:44:06.876Z,3.15
2023-02-06T05:46:34.662Z,3.72
2023-02-06T05:49:03.824Z,2.10
2023-02-06T05:51:31.699Z,2.22
2023-02-06T05:53:59.527Z,2.47
2023-02-06T05:56:27.308Z,4.13
2023-02-06T05:58:55.096Z,3.25
2023-02-06T06:01:22.852Z,2.05
2023-02-06T06:03:50.599Z,2.83
2023-02-06T06:06:19.726Z,3.35
2023-02-06T06:08:47.493Z,3.10
2023-02-06T06:11:15.368Z,2.92
2023-02-06T06:13:43.136Z,3.05
2023-02-06T06:16:10.981Z,2.97
2023-02-06T06:18:38.799Z,2.53
2023-02-06T06:21:06.936Z,2.95
2023-02-06T06:23:36.052Z,2.92
2023-02-06T06:26:04.007Z,2.00
2023-02-06T06:28:31.700Z,3.28
2023-02-06T06:31:03.391Z,3.47
2023-02-06T06:33:31.233Z,2.90
2023-02-06T06:35:59.127Z,4.03
2023-02-06T06:38:27.176Z,3.33
2023-02-06T06:40:56.320Z,3.22
2023-02-06T06:43:24.375Z,2.38
2023-02-06T06:45:52.570Z,3.72
2023-02-06T06:48:20.371Z,2.75
2023-02-06T06:50:49.470Z,3.55
2023-02-06T06:53:17.551Z,3.08
2023-02-06T06:55:45.861Z,3.00
2023-02-06T06:58:15.166Z,3.90
2023-02-06T07:00:43.005Z,2.17
2023-02-06T07:03:11.698Z,3.05
2023-02-06T07:05:39.928Z,4.45
2023-02-06T07:08:07.671Z,4.07
2023-02-06T07:10:35.471Z,2.10
2023-02-06T07:13:03.271Z,2.67
2023-02-06T07:15:32.629Z,2.95
2023-02-06T07:18:00.440Z,3.42
2023-02-06T07:20:28.534Z,2.88
2023-02-06T07:22:56.478Z,3.08
2023-02-06T07:25:24.311Z,3.33
2023-02-06T07:27:52.073Z,2.65
2023-02-06T07:30:20.358Z,3.20
2023-02-06T07:32:50.118Z,2.10
2023-02-06T07:35:18.109Z,4.00
2023-02-06T07:37:45.911Z,3.22
2023-02-06T07:40:14.276Z,3.42
2023-02-06T07:42:42.093Z,3.92
2023-02-06T07:45:10.676Z,2.85
2023-02-06T07:47:38.522Z,2.70
2023-02-06T07:50:08.390Z,2.63
2023-02-06T07:52:36.596Z,2.75
2023-02-06T07:55:04.637Z,2.63
2023-02-06T07:57:32.452Z,2.92
2023-02-06T08:00:00.243Z,3.38
2023-02-06T08:02:28.236Z,2.80
2023-02-06T08:04:55.952Z,4.22
2023-02-06T08:07:25.128Z,3.88
2023-02-06T08:09:52.815Z,4.00
2023-02-06T08:12:20.627Z,3.78
2023-02-06T08:14:48.581Z,2.75
2023-02-06T08:17:18.345Z,3.42
2023-02-06T08:19:47.217Z,3.40
2023-02-06T08:22:14.968Z,5.50
2023-02-06T08:24:44.206Z,3.20
2023-02-06T08:27:12.040Z,4.40
2023-02-06T08:29:42.537Z,3.47
2023-02-06T08:32:11.018Z,3.78
2023-02-06T08:34:39.869Z,5.15
2023-02-06T08:37:07.739Z,4.53
2023-02-06T08:39:35.525Z,4.88
2023-02-06T08:42:05.486Z,3.78
2023-02-06T08:44:33.842Z,4.53
2023-02-06T08:47:09.996Z,3.45
2023-02-06T08:49:38.877Z,3.95
2023-02-06T08:52:06.829Z,3.35
2023-02-06T08:54:36.864Z,5.72
2023-02-06T08:57:07.591Z,3.85
2023-02-06T08:59:35.911Z,4.32
2023-02-06T09:02:03.759Z,4.45
2023-02-06T09:04:32.671Z,2.85
2023-02-06T09:07:00.642Z,5.90
2023-02-06T09:09:28.414Z,4.93
2023-02-06T09:12:02.085Z,4.43
2023-02-06T09:14:32.159Z,4.07
2023-02-06T09:17:01.189Z,3.85
2023-02-06T09:19:29.121Z,4.63
2023-02-06T09:21:57.807Z,4.03
2023-02-06T09:24:27.316Z,4.72
2023-02-06T09:26:59.883Z,4.00
2023-02-06T09:29:29.724Z,3.50
2023-02-06T09:31:59.308Z,4.63
2023-02-06T09:34:28.326Z,5.70
2023-02-06T09:36:56.782Z,4.90
2023-02-06T09:39:25.300Z,5.00
2023-02-06T09:41:55.171Z,3.83
2023-02-06T09:44:29.591Z,5.72
2023-02-06T09:47:03.045Z,4.13
2023-02-06T09:49:38.011Z,4.53
2023-02-06T09:52:39.847Z,4.28
2023-02-06T09:55:15.416Z,3.95
2023-02-06T09:57:51.587Z,3.72
2023-02-06T10:00:35.386Z,4.20
2023-02-06T10:03:17.132Z,5.35
2023-02-06T10:05:51.987Z,3.35
2023-02-06T10:08:24.464Z,3.38
2023-02-06T10:10:56.239Z,4.53
2023-02-06T10:13:28.847Z,4.78
2023-02-06T10:16:01.481Z,3.37
2023-02-06T10:18:37.264Z,4.25
2023-02-06T10:21:10.306Z,5.20
2023-02-06T10:23:42.839Z,4.85
2023-02-06T10:26:17.220Z,4.93
2023-02-06T10:28:46.331Z,4.80
2023-02-06T10:31:39.199Z,4.30
2023-02-06T10:34:34.563Z,4.63
2023-02-06T10:37:19.618Z,4.43
2023-02-06T10:40:13.498Z,3.42
2023-02-06T10:42:51.132Z,3.92
2023-02-06T10:45:32.846Z,4.40
2023-02-06T10:48:12.027Z,5.65
2023-02-06T10:50:45.941Z,4.47
2023-02-06T10:53:19.039Z,4.20
2023-02-06T10:55:50.724Z,3.15
2023-02-06T10:58:23.744Z,3.67
2023-02-06T11:00:53.241Z,3.50
2023-02-06T11:03:25.450Z,3.47
2023-02-06T11:05:54.865Z,3.45
2023-02-06T11:08:28.571Z,5.75
2023-02-06T11:10:56.778Z,4.10
2023-02-06T11:13:28.384Z,3.72
2023-02-06T11:16:02.686Z,4.78
2023-02-06T11:18:34.869Z,4.50
2023-02-06T11:21:04.886Z,5.80
2023-02-06T11:23:34.647Z,3.20
2023-02-06T11:26:14.133Z,4.78
2023-02-06T11:28:52.320Z,2.88
2023-02-06T11:31:22.398Z,3.35
2023-02-06T11:33:53.253Z,2.78
2023-02-06T11:36:30.471Z,4.68
2023-02-06T11:39:00.580Z,4.32
2023-02-06T11:41:29.581Z,3.15
2023-02-06T11:44:02.589Z,3.45
2023-02-06T11:46:32.426Z,4.10
2023-02-06T11:49:06.228Z,3.70
2023-02-06T11:51:51.225Z,3.60
2023-02-06T11:54:28.510Z,2.55
2023-02-06T11:57:03.251Z,4.72
2023-02-06T11:59:34.529Z,3.20
2023-02-06T12:02:05.658Z,3.55
2023-02-06T12:04:37.857Z,5.78
2023-02-06T12:07:15.121Z,4.72
2023-02-06T12:09:42.952Z,2.92
2023-02-06T12:12:20.455Z,3.53
2023-02-06T12:14:54.877Z,4.63
2023-02-06T12:17:28.269Z,3.30
2023-02-06T12:20:04.256Z,2.88
2023-02-06T12:22:39.459Z,3.35
2023-02-06T12:25:22.716Z,3.70
2023-02-06T12:27:53.078Z,3.22
2023-02-06T12:30:30.455Z,3.40
2023-02-06T12:33:06.121Z,3.72
2023-02-06T12:35:37.707Z,3.53
2023-02-06T12:38:22.106Z,3.13
2023-02-06T12:41:02.579Z,4.72
2023-02-06T12:43:35.457Z,3.35
2023-02-06T12:46:08.289Z,4.10
2023-02-06T12:48:42.639Z,2.35
2023-02-06T12:51:18.141Z,2.90
2023-02-06T12:53:52.316Z,4.00
2023-02-06T12:56:28.609Z,2.65
2023-02-06T12:59:06.862Z,2.70
2023-02-06T13:01:46.609Z,3.15
2023-02-06T13:04:17.706Z,3.75
2023-02-06T13:06:53.077Z,2.75
2023-02-06T13:09:29.001Z,4.38
2023-02-06T13:12:09.440Z,2.80
2023-02-06T13:14:39.808Z,4.28
2023-02-06T13:17:11.810Z,3.60
2023-02-06T13:20:00.988Z,3.40
2023-02-06T13:22:49.282Z,3.08
2023-02-06T13:25:53.786Z,4.75
2023-02-06T13:29:00.896Z,3.80
2023-02-06T13:31:31.945Z,2.72
2023-02-06T13:34:02.753Z,3.08
2023-02-06T13:37:10.728Z,4.63
2023-02-06T13:39:38.496Z,2.60
2023-02-06T13:42:36.133Z,3.08
2023-02-06T13:45:07.374Z,3.17
2023-02-06T13:48:22.786Z,3.17
2023-02-06T13:51:08.020Z,3.88
2023-02-06T13:54:07.057Z,3.40
2023-02-06T13:56:48.115Z,3.38
2023-02-06T13:59:18.713Z,3.83
2023-02-06T14:01:47.972Z,3.40
2023-02-06T14:04:23.311Z,3.97
2023-02-06T14:07:21.913Z,3.42
2023-02-06T14:10:05.222Z,3.15
2023-02-06T14:12:45.308Z,3.95
2023-02-06T14:15:22.664Z,3.42
2023-02-06T14:18:13.622Z,2.78
2023-02-06T14:20:50.415Z,3.35
2023-02-06T14:23:28.189Z,3.05
2023-02-06T14:26:09.274Z,3.20
2023-02-06T14:28:49.679Z,3.88
2023-02-06T14:31:27.194Z,3.08
2023-02-06T14:34:07.786Z,3.10
2023-02-06T14:37:00.656Z,3.90
2023-02-06T14:39:40.690Z,2.72
2023-02-06T14:42:13.273Z,2.65
2023-02-06T14:44:43.884Z,2.53
2023-02-06T14:47:19.352Z,3.08
2023-02-06T14:49:50.311Z,3.47
2023-02-06T14:52:21.211Z,2.58
2023-02-06T14:54:50.385Z,1.98
2023-02-06T14:57:23.957Z,3.30
2023-02-06T14:59:57.530Z,2.35
2023-02-06T15:02:28.773Z,3.75
2023-02-06T15:04:59.416Z,2.95
2023-02-06T15:07:32.151Z,3.28
2023-02-06T15:10:05.696Z,2.50
2023-02-06T15:12:34.498Z,2.35
2023-02-06T15:15:15.360Z,3.35
2023-02-06T15:17:43.822Z,3.25
2023-02-06T15:20:29.111Z,3.20
2023-02-06T15:23:11.704Z,3.05
2023-02-06T15:25:54.542Z,2.75
2023-02-06T15:28:28.403Z,3.20
2023-02-06T15:30:58.959Z,3.40
2023-02-06T15:33:29.034Z,2.85
2023-02-06T15:36:00.935Z,3.55
2023-02-06T15:38:31.475Z,3.63
2023-02-06T15:41:02.023Z,3.42
2023-02-06T15:43:31.414Z,2.67
2023-02-06T15:46:02.657Z,3.33
2023-02-06T15:48:41.520Z,2.38
2023-02-06T15:51:31.567Z,3.58
2023-02-06T15:54:10.705Z,3.33
2023-02-06T15:56:41.771Z,3.05
2023-02-06T15:59:21.773Z,3.08
2023-02-06T16:01:51.211Z,2.38
2023-02-06T16:04:24.341Z,2.92
2023-02-06T16:07:06.839Z,2.53
2023-02-06T16:09:47.150Z,2.85
2023-02-06T16:12:16.866Z,3.00
2023-02-06T16:14:55.688Z,3.05
2023-02-06T16:17:29.319Z,2.80
2023-02-06T16:19:59.947Z,3.05
2023-02-06T16:22:30.955Z,2.35
2023-02-06T16:25:16.428Z,2.53
2023-02-06T16:27:46.378Z,2.50
2023-02-06T16:30:25.348Z,2.03
2023-02-06T16:32:55.458Z,2.38
2023-02-06T16:35:24.109Z,3.33
2023-02-06T16:37:54.923Z,2.70
2023-02-06T16:40:23.194Z,3.05
2023-02-06T16:42:51.970Z,2.90
2023-02-06T16:45:24.930Z,2.42
2023-02-06T16:47:53.252Z,2.70
2023-02-06T16:50:22.352Z,2.35
2023-02-06T16:52:51.973Z,2.72
2023-02-06T16:55:23.621Z,2.95
2023-02-06T16:57:54.485Z,2.40
2023-02-06T17:00:24.730Z,2.80
2023-02-06T17:02:53.395Z,1.88
2023-02-06T17:05:23.571Z,3.92
2023-02-06T17:07:51.897Z,2.78
2023-02-06T17:10:22.737Z,2.67
2023-02-06T17:12:50.868Z,2.47
2023-02-06T17:15:20.034Z,2.65
2023-02-06T17:17:47.833Z,2.50
2023-02-06T17:20:25.554Z,3.30
2023-02-06T17:22:53.331Z,5.13
2023-02-06T17:25:22.497Z,2.47
2023-02-06T17:27:50.369Z,1.98
2023-02-06T17:30:20.474Z,3.03
2023-02-06T17:32:48.781Z,3.42
2023-02-06T17:35:16.915Z,3.03
2023-02-06T17:37:44.955Z,2.95
2023-02-06T17:40:19.931Z,3.05
2023-02-06T17:42:49.176Z,2.60
2023-02-06T17:45:17.209Z,2.65
2023-02-06T17:47:45.001Z,3.17
2023-02-06T17:50:15.441Z,1.70
2023-02-06T17:52:43.270Z,3.47
2023-02-06T17:55:11.824Z,3.42
2023-02-06T17:57:39.827Z,2.55
2023-02-06T18:00:13.459Z,2.60
2023-02-06T18:02:41.302Z,2.78
2023-02-06T18:05:10.026Z,2.83
2023-02-06T18:07:38.753Z,3.35
2023-02-06T18:10:07.976Z,2.83
2023-02-06T18:12:35.757Z,2.90
2023-02-06T18:15:04.232Z,3.10
2023-02-06T18:17:33.460Z,2.60
2023-02-06T18:20:01.451Z,2.45
2023-02-06T18:22:29.319Z,3.20
2023-02-06T18:24:57.310Z,2.92
2023-02-06T18:27:25.115Z,3.22
2023-02-06T18:29:55.086Z,2.78
2023-02-06T18:32:22.899Z,2.70
2023-02-06T18:34:52.172Z,3.72
2023-02-06T18:37:19.953Z,2.55
2023-02-06T18:39:47.867Z,2.85
2023-02-06T18:42:33.283Z,3.20
2023-02-06T18:45:03.715Z,3.47
2023-02-06T18:47:31.924Z,4.05
2023-02-06T18:50:01.011Z,4.32
2023-02-06T18:52:29.071Z,3.30
2023-02-06T18:54:56.859Z,4.38
2023-02-06T18:57:24.654Z,3.75
2023-02-06T18:59:52.580Z,4.05
2023-02-06T19:02:20.400Z,3.38
2023-02-06T19:04:48.266Z,3.17
2023-02-06T19:07:17.423Z,4.57
2023-02-06T19:09:45.418Z,3.85
2023-02-06T19:12:13.140Z,4.80
2023-02-06T19:14:41.052Z,3.92
2023-02-06T19:17:08.804Z,2.95
2023-02-06T19:19:36.556Z,4.07
2023-02-06T19:22:04.448Z,5.68
2023-02-06T19:24:33.591Z,3.75
2023-02-06T19:27:02.046Z,4.18
2023-02-06T19:29:36.238Z,3.88
2023-02-06T19:32:05.702Z,3.50
2023-02-06T19:34:36.012Z,3.65
2023-02-06T19:37:04.100Z,3.85
2023-02-06T19:39:34.358Z,3.88
2023-02-06T19:42:04.130Z,4.57
2023-02-06T19:44:33.378Z,3.67
2023-02-06T19:47:01.524Z,4.45
2023-02-06T19:49:29.691Z,4.43
2023-02-06T19:51:57.531Z,3.70
2023-02-06T19:54:25.349Z,4.15
2023-02-06T19:56:54.635Z,4.10
2023-02-06T19:59:24.944Z,4.15
2023-02-06T20:01:55.002Z,4.45
2023-02-06T20:04:25.519Z,5.40
2023-02-06T20:06:53.799Z,4.93
2023-02-06T20:09:21.864Z,4.00
2023-02-06T20:11:50.308Z,3.42
2023-02-06T20:14:19.991Z,3.22
2023-02-06T20:16:48.965Z,2.85
2023-02-06T20:19:18.663Z,3.25
2023-02-06T20:21:49.190Z,3.67
2023-02-06T20:24:20.754Z,3.63
2023-02-06T20:26:50.112Z,3.92
2023-02-06T20:29:21.861Z,3.90
2023-02-06T20:31:50.383Z,4.90
2023-02-06T20:34:19.320Z,4.10
2023-02-06T20:36:47.699Z,4.07
2023-02-06T20:39:16.271Z,4.78
2023-02-06T20:41:46.382Z,3.85
2023-02-06T20:44:15.054Z,4.57
2023-02-06T20:46:44.445Z,5.00
2023-02-06T20:49:15.596Z,4.43
2023-02-06T20:51:43.523Z,5.00
2023-02-06T20:54:12.028Z,4.30
2023-02-06T20:56:40.402Z,4.45
2023-02-06T20:59:08.712Z,4.15
2023-02-06T21:01:36.594Z,5.65
2023-02-06T21:04:07.804Z,5.55
2023-02-06T21:06:36.880Z,5.18
2023-02-06T21:09:06.897Z,4.63
2023-02-06T21:11:37.295Z,3.88
2023-02-06T21:14:06.569Z,4.25
2023-02-06T21:16:35.941Z,5.60
2023-02-06T21:19:06.282Z,4.80
2023-02-06T21:21:34.348Z,5.93
2023-02-06T21:24:02.173Z,4.68
2023-02-06T21:26:30.763Z,4.00
2023-02-06T21:28:59.753Z,3.63
2023-02-06T21:31:35.396Z,4.53
2023-02-06T21:34:09.736Z,4.88
2023-02-06T21:36:38.996Z,3.90
2023-02-06T21:39:07.767Z,4.32
2023-02-06T21:41:36.175Z,4.13
2023-02-06T21:44:04.662Z,4.05
2023-02-06T21:46:33.348Z,4.25
2023-02-06T21:49:01.177Z,4.30
2023-02-06T21:51:30.624Z,4.80
2023-02-06T21:53:58.785Z,4.15
2023-02-06T21:56:28.856Z,3.58
2023-02-06T21:58:56.975Z,4.70
2023-02-06T22:01:27.644Z,3.80
2023-02-06T22:03:59.628Z,5.35
2023-02-06T22:06:28.872Z,4.43
2023-02-06T22:09:05.018Z,4.45
2023-02-06T22:11:33.141Z,4.40
2023-02-06T22:14:02.906Z,5.88
2023-02-06T22:16:30.901Z,5.07
2023-02-06T22:19:00.656Z,5.13
2023-02-06T22:21:30.047Z,5.70
2023-02-06T22:24:00.970Z,4.10
2023-02-06T22:26:30.480Z,4.82
2023-02-06T22:28:59.179Z,5.03
2023-02-06T22:31:29.445Z,4.03
2023-02-06T22:33:58.790Z,5.53
2023-02-06T22:36:29.731Z,4.50
2023-02-06T22:39:00.677Z,4.43
2023-02-06T22:41:29.056Z,2.90
2023-02-06T22:43:56.885Z,3.88
2023-02-06T22:46:28.137Z,2.20
2023-02-06T22:48:56.348Z,3.90
2023-02-06T22:51:24.665Z,3.30
2023-02-06T22:53:53.160Z,3.40
2023-02-06T22:56:27.940Z,4.20
2023-02-06T22:58:57.616Z,8.43
2023-02-06T23:01:30.061Z,8.35
2023-02-06T23:03:58.721Z,9.07
2023-02-06T23:06:27.475Z,10.40
2023-02-06T23:08:56.436Z,7.97
2023-02-06T23:11:26.447Z,9.90
2023-02-06T23:13:55.726Z,8.55
2023-02-06T23:16:24.603Z,8.55
2023-02-06T23:18:52.490Z,7.78
2023-02-06T23:21:22.680Z,8.45
2023-02-06T23:23:50.746Z,8.05
2023-02-06T23:26:20.543Z,7.68
2023-02-06T23:28:49.911Z,9.10
2023-02-06T23:31:17.900Z,7.57
2023-02-06T23:33:45.779Z,9.88
2023-02-06T23:36:15.914Z,7.97
2023-02-06T23:38:44.477Z,10.30
2023-02-06T23:41:14.863Z,9.95
2023-02-06T23:43:43.168Z,8.80
2023-02-06T23:46:13.248Z,9.88
2023-02-06T23:48:41.079Z,8.43
2023-02-06T23:51:08.898Z,6.68
2023-02-06T23:53:36.716Z,5.53
2023-02-06T23:56:11.048Z,6.22
2023-02-06T23:58:38.803Z,6.90
